Time;durP1;ratioP1;P1;durP2;ratioP2;P2;SDS_P1;SDS_P2;PMS_P1;PMS_P2;Temp;Humidity;BMP_temperature;BMP_pressure;BME280_temperature;BME280_humidity;BME280_pressure;Samples;Min_cycle;Max_cycle;Signal;HPM_P1;HPM_P2
2022/12/01 00:00:30;;;;;;;42.78;23.05;;;;;;;;;;5074436;28;20070;-70
2022/12/01 00:02:57;;;;;;;34.53;21.85;;;;;;;;;;5056209;28;20074;-70
2022/12/01 00:05:22;;;;;;;36.22;23.10;;;;;;;;;;5073920;28;20066;-70
2022/12/01 00:07:48;;;;;;;31.40;21.40;;;;;;;;;;5074068;28;20375;-70
2022/12/01 00:10:27;;;;;;;34.00;21.85;;;;;;;;;;5074177;28;20028;-67
2022/12/01 00:12:53;;;;;;;36.88;22.00;;;;;;;;;;5074298;28;20476;-67
2022/12/01 00:15:19;;;;;;;46.30;25.20;;;;;;;;;;5073429;28;20096;-67
2022/12/01 00:17:46;;;;;;;36.08;22.77;;;;;;;;;;5073912;28;20113;-67
2022/12/01 00:20:12;;;;;;;39.33;23.42;;;;;;;;;;5056028;28;20021;-67
2022/12/01 00:22:37;;;;;;;34.88;22.42;;;;;;;;;;5074115;28;20028;-67
2022/12/01 00:25:03;;;;;;;28.70;19.58;;;;;;;;;;5056017;28;20050;-67
2022/12/01 00:27:28;;;;;;;28.02;19.13;;;;;;;;;;5055845;28;20482;-67
2022/12/01 00:29:54;;;;;;;29.25;18.77;;;;;;;;;;5073990;28;20090;-67
2022/12/01 00:32:19;;;;;;;29.00;18.77;;;;;;;;;;5073468;28;20049;-67
2022/12/01 00:34:45;;;;;;;29.55;19.02;;;;;;;;;;5073691;28;20021;-67
2022/12/01 00:37:10;;;;;;;27.38;18.48;;;;;;;;;;5073908;28;20032;-67
2022/12/01 00:39:35;;;;;;;26.17;18.23;;;;;;;;;;5073857;28;20431;-67
2022/12/01 00:42:01;;;;;;;24.52;16.92;;;;;;;;;;5073815;28;20024;-67
2022/12/01 00:44:26;;;;;;;25.02;17.27;;;;;;;;;;5073750;28;20016;-67
2022/12/01 00:46:51;;;;;;;25.80;17.27;;;;;;;;;;5073724;28;20024;-67
2022/12/01 00:49:17;;;;;;;25.00;16.98;;;;;;;;;;5073885;28;20128;-67
2022/12/01 00:51:42;;;;;;;23.02;16.27;;;;;;;;;;5055703;28;20037;-68
2022/12/01 00:54:08;;;;;;;23.13;15.73;;;;;;;;;;5073675;28;20505;-68
2022/12/01 00:56:33;;;;;;;20.00;15.50;;;;;;;;;;5073607;28;20078;-67
2022/12/01 00:58:58;;;;;;;22.98;16.58;;;;;;;;;;5073671;28;20025;-70
2022/12/01 01:01:24;;;;;;;21.08;15.95;;;;;;;;;;5073803;28;20025;-70
2022/12/01 01:03:49;;;;;;;23.45;15.52;;;;;;;;;;5073482;28;20084;-70
2022/12/01 01:06:15;;;;;;;19.88;15.55;;;;;;;;;;5073517;28;20040;-70
2022/12/01 01:08:40;;;;;;;24.50;18.88;;;;;;;;;;5073300;28;20020;-70
2022/12/01 01:11:06;;;;;;;21.33;16.55;;;;;;;;;;5073146;28;20028;-70
2022/12/01 01:13:32;;;;;;;21.20;16.30;;;;;;;;;;5073390;28;20032;-70
2022/12/01 01:15:58;;;;;;;23.42;15.93;;;;;;;;;;5073454;28;20029;-70
2022/12/01 01:18:24;;;;;;;22.25;15.00;;;;;;;;;;5055341;28;20033;-70
2022/12/01 01:20:57;;;;;;;23.00;15.25;;;;;;;;;;5055418;28;20025;-70
2022/12/01 01:23:23;;;;;;;22.33;16.55;;;;;;;;;;5073373;28;20123;-70
2022/12/01 01:25:48;;;;;;;20.33;15.60;;;;;;;;;;5073187;28;20051;-70
2022/12/01 01:28:14;;;;;;;21.33;14.93;;;;;;;;;;5077065;28;20036;-68
2022/12/01 01:30:39;;;;;;;20.48;14.90;;;;;;;;;;5077018;28;20079;-70
2022/12/01 01:33:05;;;;;;;23.23;15.70;;;;;;;;;;5058965;28;20467;-70
2022/12/01 01:35:30;;;;;;;24.55;17.02;;;;;;;;;;5059301;28;20424;-70
2022/12/01 01:37:56;;;;;;;21.67;15.38;;;;;;;;;;5059025;28;20502;-70
2022/12/01 01:40:21;;;;;;;24.33;15.60;;;;;;;;;;5077036;28;20016;-70
2022/12/01 01:42:47;;;;;;;20.58;15.20;;;;;;;;;;5076877;28;20025;-70
2022/12/01 01:45:22;;;;;;;20.73;14.63;;;;;;;;;;5076581;28;20085;-70
2022/12/01 01:47:49;;;;;;;20.13;14.18;;;;;;;;;;5085810;23;20056;-70
2022/12/01 01:50:15;;;;;;;16.13;13.05;;;;;;;;;;5078853;28;20031;-70
2022/12/01 01:52:52;;;;;;;17.70;13.13;;;;;;;;;;5097043;28;20044;-70
2022/12/01 01:55:18;;;;;;;17.58;12.90;;;;;;;;;;5096443;28;20035;-70
2022/12/01 01:57:44;;;;;;;19.90;13.40;;;;;;;;;;5096685;28;20016;-70
2022/12/01 02:00:13;;;;;;;13.35;10.93;;;;;;;;;;5096682;28;20039;-70
2022/12/01 02:02:43;;;;;;;17.23;13.03;;;;;;;;;;5096644;28;20035;-70
2022/12/01 02:05:10;;;;;;;15.03;11.90;;;;;;;;;;5096765;28;20473;-70
2022/12/01 02:07:37;;;;;;;14.38;10.43;;;;;;;;;;5096597;28;20024;-70
2022/12/01 02:10:03;;;;;;;14.48;10.32;;;;;;;;;;5096692;28;20034;-69
2022/12/01 02:12:47;;;;;;;12.57;10.45;;;;;;;;;;5096335;28;20023;-70
2022/12/01 02:15:12;;;;;;;13.32;11.65;;;;;;;;;;5096461;28;20113;-69
2022/12/01 02:17:40;;;;;;;13.38;11.45;;;;;;;;;;5096527;28;20470;-70
2022/12/01 02:20:09;;;;;;;11.20;9.48;;;;;;;;;;5096453;28;20039;-70
2022/12/01 02:22:40;;;;;;;14.55;10.13;;;;;;;;;;5096425;28;20058;-70
2022/12/01 02:27:58;;;;;;;11.00;9.20;;;;;;;;;;5118290;22;20490;-70
2022/12/01 02:30:33;;;;;;;10.25;9.15;;;;;;;;;;5116813;28;20042;-70
2022/12/01 02:33:02;;;;;;;11.45;10.05;;;;;;;;;;5116500;28;20478;-70
2022/12/01 02:35:27;;;;;;;10.60;9.13;;;;;;;;;;5116454;28;20031;-69
2022/12/01 02:38:04;;;;;;;12.23;9.07;;;;;;;;;;5116039;28;20024;-69
2022/12/01 02:40:32;;;;;;;9.57;8.25;;;;;;;;;;5116414;28;20085;-69
2022/12/01 02:43:04;;;;;;;10.63;8.70;;;;;;;;;;5116476;28;20095;-69
2022/12/01 02:45:42;;;;;;;9.52;8.55;;;;;;;;;;5116371;28;20470;-69
2022/12/01 02:48:13;;;;;;;10.55;9.40;;;;;;;;;;5116576;28;20119;-70
2022/12/01 02:50:39;;;;;;;11.95;9.73;;;;;;;;;;5098524;28;20369;-70
2022/12/01 02:53:05;;;;;;;10.50;9.15;;;;;;;;;;5116151;28;20016;-70
2022/12/01 02:55:31;;;;;;;9.60;8.60;;;;;;;;;;5116616;28;20458;-66
2022/12/01 02:57:56;;;;;;;8.75;7.78;;;;;;;;;;5081120;28;20020;-66
2022/12/01 03:00:21;;;;;;;10.25;9.25;;;;;;;;;;5116368;28;20423;-66
2022/12/01 03:03:05;;;;;;;8.98;7.13;;;;;;;;;;5116454;28;20024;-65
2022/12/01 03:05:46;;;;;;;9.43;8.10;;;;;;;;;;5116136;28;20067;-66
2022/12/01 03:08:12;;;;;;;;;;;;;;;;;;5116547;28;20036;-66
2022/12/01 03:10:54;;;;;;;9.77;7.07;;;;;;;;;;5116122;28;19910;-68
2022/12/01 03:13:23;;;;;;;11.25;8.15;;;;;;;;;;5115728;28;20489;-68
2022/12/01 03:15:51;;;;;;;9.00;7.95;;;;;;;;;;5115761;28;20023;-68
2022/12/01 03:18:35;;;;;;;8.45;7.72;;;;;;;;;;5097609;28;20120;-65
2022/12/01 03:21:05;;;;;;;8.52;7.72;;;;;;;;;;5115784;28;20023;-65
2022/12/01 03:23:33;;;;;;;8.05;7.22;;;;;;;;;;5115868;28;20107;-67
2022/12/01 03:26:00;;;;;;;8.35;7.45;;;;;;;;;;5115573;28;20494;-67
2022/12/01 03:28:31;;;;;;;9.57;8.15;;;;;;;;;;5115647;28;20107;-67
2022/12/01 03:31:36;;;;;;;8.10;7.30;;;;;;;;;;5094750;22;20486;-67
2022/12/01 03:34:25;;;;;;;9.75;8.55;;;;;;;;;;5013199;28;20034;-70
2022/12/01 03:36:53;;;;;;;10.20;8.68;;;;;;;;;;5004460;28;20049;-70
2022/12/01 03:39:21;;;;;;;16.48;11.50;;;;;;;;;;5014324;28;20021;-70
2022/12/01 03:41:55;;;;;;;11.85;10.60;;;;;;;;;;5015016;28;20030;-70
2022/12/01 03:44:24;;;;;;;14.05;11.88;;;;;;;;;;5015088;28;20065;-70
2022/12/01 03:46:55;;;;;;;11.88;10.38;;;;;;;;;;5015299;28;20030;-70
2022/12/01 03:49:21;;;;;;;11.88;10.60;;;;;;;;;;5014179;28;20034;-70
2022/12/01 03:51:57;;;;;;;11.20;10.05;;;;;;;;;;5014656;28;20029;-70
2022/12/01 03:54:35;;;;;;;20.30;17.88;;;;;;;;;;5015127;28;20461;-70
2022/12/01 03:57:03;;;;;;;12.23;10.40;;;;;;;;;;5014945;28;20061;-69
2022/12/01 03:59:29;;;;;;;12.48;11.00;;;;;;;;;;5050484;23;20053;-66
2022/12/01 04:01:55;;;;;;;10.63;9.25;;;;;;;;;;5096716;28;20027;-69
2022/12/01 04:04:21;;;;;;;11.43;9.60;;;;;;;;;;5115248;28;20110;-69
2022/12/01 04:06:48;;;;;;;12.45;9.93;;;;;;;;;;5114899;28;20112;-69
2022/12/01 04:09:14;;;;;;;11.05;9.38;;;;;;;;;;5115073;28;20084;-69
2022/12/01 04:14:23;;;;;;;11.02;9.85;;;;;;;;;;5115201;28;20039;-69
2022/12/01 04:16:48;;;;;;;10.65;9.48;;;;;;;;;;5114631;28;20011;-69
2022/12/01 04:19:14;;;;;;;11.75;9.57;;;;;;;;;;5114850;28;20096;-70
2022/12/01 04:21:39;;;;;;;13.10;10.63;;;;;;;;;;5115006;28;20366;-70
2022/12/01 04:24:05;;;;;;;11.85;9.70;;;;;;;;;;5114898;28;20438;-70
2022/12/01 04:26:34;;;;;;;11.45;9.32;;;;;;;;;;5114943;28;20024;-70
2022/12/01 04:29:00;;;;;;;11.00;8.77;;;;;;;;;;5114737;28;20042;-70
2022/12/01 04:31:26;;;;;;;10.38;9.27;;;;;;;;;;5114715;28;20027;-70
2022/12/01 04:33:53;;;;;;;11.10;9.02;;;;;;;;;;5096442;28;20035;-70
2022/12/01 04:36:18;;;;;;;11.05;9.50;;;;;;;;;;5114476;28;20435;-70
2022/12/01 04:38:43;;;;;;;9.93;8.18;;;;;;;;;;5114429;28;20032;-70
2022/12/01 04:41:09;;;;;;;10.02;8.52;;;;;;;;;;5114650;28;20019;-70
2022/12/01 04:43:35;;;;;;;9.55;8.63;;;;;;;;;;5114571;28;20112;-70
2022/12/01 04:46:00;;;;;;;10.27;9.23;;;;;;;;;;5114496;28;20047;-70
2022/12/01 04:48:26;;;;;;;9.70;8.65;;;;;;;;;;5114854;28;20373;-69
2022/12/01 04:50:51;;;;;;;10.45;9.23;;;;;;;;;;5114523;28;20469;-70
2022/12/01 04:53:16;;;;;;;12.32;9.70;;;;;;;;;;5114096;28;20070;-70
2022/12/01 04:55:42;;;;;;;10.00;8.88;;;;;;;;;;5114347;28;20015;-70
2022/12/01 04:58:07;;;;;;;10.55;9.07;;;;;;;;;;5114291;28;20028;-70
2022/12/01 05:00:33;;;;;;;9.73;8.68;;;;;;;;;;5114654;28;20382;-69
2022/12/01 05:02:58;;;;;;;9.65;8.40;;;;;;;;;;5118588;28;20032;-70
2022/12/01 05:05:24;;;;;;;11.63;9.68;;;;;;;;;;5118545;28;20047;-70
2022/12/01 05:07:50;;;;;;;11.63;10.05;;;;;;;;;;5118539;28;20036;-70
2022/12/01 05:10:17;;;;;;;9.55;8.55;;;;;;;;;;5118000;28;20030;-70
2022/12/01 05:12:45;;;;;;;9.88;8.35;;;;;;;;;;5118414;28;20050;-70
2022/12/01 05:15:10;;;;;;;10.32;9.27;;;;;;;;;;5118319;28;20015;-70
2022/12/01 05:17:36;;;;;;;11.80;9.45;;;;;;;;;;5117473;28;20161;-70
2022/12/01 05:22:47;;;;;;;9.27;8.10;;;;;;;;;;5117617;28;20027;-70
2022/12/01 05:25:13;;;;;;;9.75;8.57;;;;;;;;;;5100084;28;20531;-70
2022/12/01 05:27:38;;;;;;;9.13;8.18;;;;;;;;;;5099760;28;20035;-70
2022/12/01 05:30:04;;;;;;;10.13;8.70;;;;;;;;;;5118015;28;20089;-70
2022/12/01 05:32:29;;;;;;;11.20;8.88;;;;;;;;;;5117566;28;20036;-70
2022/12/01 05:34:55;;;;;;;10.48;8.82;;;;;;;;;;5117165;28;20024;-69
2022/12/01 05:37:20;;;;;;;10.05;8.85;;;;;;;;;;5098985;28;20032;-71
2022/12/01 05:39:46;;;;;;;9.95;8.95;;;;;;;;;;5117598;28;20024;-70
2022/12/01 05:42:12;;;;;;;10.52;9.45;;;;;;;;;;5117853;28;20030;-71
2022/12/01 05:44:37;;;;;;;8.95;8.05;;;;;;;;;;5117824;28;20411;-71
2022/12/01 05:47:02;;;;;;;9.00;8.10;;;;;;;;;;5118019;28;20024;-70
2022/12/01 05:49:28;;;;;;;10.02;8.60;;;;;;;;;;5116749;28;20482;-70
2022/12/01 05:51:53;;;;;;;11.63;9.30;;;;;;;;;;5113356;28;20035;-70
2022/12/01 05:54:18;;;;;;;11.45;8.95;;;;;;;;;;5089560;28;20020;-71
2022/12/01 05:56:44;;;;;;;10.18;9.13;;;;;;;;;;5096325;28;20069;-71
2022/12/01 05:59:09;;;;;;;11.02;9.35;;;;;;;;;;5094671;28;20454;-71
2022/12/01 06:01:34;;;;;;;11.35;9.35;;;;;;;;;;5095715;28;20117;-71
2022/12/01 06:04:00;;;;;;;9.85;8.85;;;;;;;;;;5096259;28;20024;-70
2022/12/01 06:06:25;;;;;;;8.90;7.97;;;;;;;;;;5096403;28;20039;-71
2022/12/01 06:08:51;;;;;;;8.73;7.85;;;;;;;;;;5095964;28;20023;-71
2022/12/01 06:11:16;;;;;;;8.95;8.07;;;;;;;;;;5077370;28;20032;-70
2022/12/01 06:13:41;;;;;;;9.35;8.43;;;;;;;;;;5095621;28;20385;-67
2022/12/01 06:16:07;;;;;;;9.10;8.05;;;;;;;;;;5095321;28;20073;-67
2022/12/01 06:18:33;;;;;;;11.38;8.73;;;;;;;;;;5095020;28;20020;-67
2022/12/01 06:20:59;;;;;;;10.20;8.50;;;;;;;;;;5076954;28;20024;-67
2022/12/01 06:23:24;;;;;;;9.93;8.60;;;;;;;;;;5094812;28;20089;-67
2022/12/01 06:25:50;;;;;;;6.45;5.90;;;;;;;;;;5094888;28;20036;-67
2022/12/01 06:28:16;;;;;;;9.23;8.32;;;;;;;;;;5095385;28;20056;-67
2022/12/01 06:30:41;;;;;;;9.30;8.40;;;;;;;;;;5096349;28;20032;-67
2022/12/01 06:33:07;;;;;;;9.88;8.88;;;;;;;;;;5096065;28;20046;-67
2022/12/01 06:35:32;;;;;;;10.57;9.48;;;;;;;;;;5095801;28;20057;-67
2022/12/01 06:37:58;;;;;;;11.85;9.70;;;;;;;;;;5095753;28;20038;-67
2022/12/01 06:40:23;;;;;;;15.60;11.02;;;;;;;;;;5095980;28;20516;-69
2022/12/01 06:42:48;;;;;;;60.90;25.65;;;;;;;;;;5095902;28;20077;-67
2022/12/01 06:45:14;;;;;;;14.60;11.45;;;;;;;;;;5095864;28;20024;-67
2022/12/01 06:47:39;;;;;;;11.07;9.93;;;;;;;;;;5094199;28;20024;-67
2022/12/01 06:50:07;;;;;;;12.70;9.65;;;;;;;;;;5094753;28;20028;-67
2022/12/01 06:52:33;;;;;;;23.15;17.88;;;;;;;;;;5095108;28;20026;-68
2022/12/01 06:54:59;;;;;;;11.95;10.73;;;;;;;;;;5095192;28;20454;-67
2022/12/01 06:57:24;;;;;;;15.30;13.63;;;;;;;;;;5095121;28;20023;-67
2022/12/01 06:59:50;;;;;;;17.83;16.02;;;;;;;;;;5076810;28;20050;-67
2022/12/01 07:02:15;;;;;;;15.40;13.07;;;;;;;;;;5076848;28;20032;-67
2022/12/01 07:04:41;;;;;;;14.40;12.23;;;;;;;;;;5094703;28;20065;-67
2022/12/01 07:07:06;;;;;;;11.40;10.18;;;;;;;;;;5076416;28;20458;-67
2022/12/01 07:09:32;;;;;;;12.98;10.50;;;;;;;;;;5076387;28;20119;-67
2022/12/01 07:11:57;;;;;;;11.77;9.63;;;;;;;;;;5093428;28;20076;-67
2022/12/01 07:14:24;;;;;;;11.90;10.57;;;;;;;;;;5094650;28;20012;-67
2022/12/01 07:16:49;;;;;;;12.68;10.52;;;;;;;;;;5094705;28;20420;-68
2022/12/01 07:19:14;;;;;;;11.68;9.10;;;;;;;;;;5094940;28;20150;-67
2022/12/01 07:21:40;;;;;;;13.45;11.00;;;;;;;;;;5094574;28;20024;-67
2022/12/01 07:24:05;;;;;;;12.68;11.35;;;;;;;;;;5075472;28;20028;-67
2022/12/01 07:26:31;;;;;;;15.45;11.75;;;;;;;;;;5094911;28;20367;-67
2022/12/01 07:28:57;;;;;;;15.05;10.90;;;;;;;;;;5095583;28;20065;-70
2022/12/01 07:31:22;;;;;;;12.25;10.93;;;;;;;;;;5095258;28;20074;-70
2022/12/01 07:33:48;;;;;;;12.20;10.93;;;;;;;;;;5076745;28;20023;-70
2022/12/01 07:36:13;;;;;;;13.45;12.15;;;;;;;;;;5094879;28;20038;-70
2022/12/01 07:38:39;;;;;;;12.88;11.00;;;;;;;;;;5076786;28;20024;-70
2022/12/01 07:41:08;;;;;;;11.75;10.10;;;;;;;;;;5094790;28;20389;-70
2022/12/01 07:43:34;;;;;;;12.95;11.27;;;;;;;;;;5094733;28;20455;-70
2022/12/01 07:46:07;;;;;;;15.60;12.25;;;;;;;;;;5094981;28;20032;-70
2022/12/01 07:48:33;;;;;;;12.40;11.18;;;;;;;;;;5095209;28;20031;-70
2022/12/01 07:50:58;;;;;;;11.90;10.57;;;;;;;;;;5076402;28;20020;-70
2022/12/01 07:53:23;;;;;;;31.67;20.55;;;;;;;;;;5094748;28;20111;-70
2022/12/01 07:55:49;;;;;;;11.07;10.00;;;;;;;;;;5094785;28;20110;-70
2022/12/01 07:58:15;;;;;;;20.60;15.38;;;;;;;;;;5094461;28;20020;-70
2022/12/01 08:00:41;;;;;;;17.77;14.20;;;;;;;;;;5094333;28;20379;-70
2022/12/01 08:03:07;;;;;;;11.50;9.80;;;;;;;;;;5094662;28;20028;-70
2022/12/01 08:05:32;;;;;;;12.82;10.65;;;;;;;;;;5094340;28;20356;-70
2022/12/01 08:07:59;;;;;;;20.20;15.63;;;;;;;;;;5094279;28;20024;-70
2022/12/01 08:10:24;;;;;;;17.35;13.38;;;;;;;;;;5094830;28;20020;-70
2022/12/01 08:12:50;;;;;;;12.82;10.65;;;;;;;;;;5076505;28;20032;-70
2022/12/01 08:15:15;;;;;;;18.60;14.02;;;;;;;;;;5094182;28;20482;-70
2022/12/01 08:17:40;;;;;;;14.05;11.77;;;;;;;;;;5076398;28;20036;-70
2022/12/01 08:20:06;;;;;;;15.02;12.77;;;;;;;;;;5094402;28;20020;-70
2022/12/01 08:22:32;;;;;;;17.60;14.25;;;;;;;;;;5094107;28;20039;-70
2022/12/01 08:24:57;;;;;;;21.80;16.65;;;;;;;;;;5076304;28;20020;-70
2022/12/01 08:27:23;;;;;;;14.73;12.35;;;;;;;;;;5094035;28;20024;-67
2022/12/01 08:29:48;;;;;;;14.45;11.90;;;;;;;;;;5093981;28;20016;-68
2022/12/01 08:32:15;;;;;;;14.70;11.70;;;;;;;;;;5094442;28;20028;-68
2022/12/01 08:34:40;;;;;;;11.35;10.02;;;;;;;;;;5075709;28;20077;-67
2022/12/01 08:37:06;;;;;;;19.55;13.05;;;;;;;;;;5093632;28;20413;-67
2022/12/01 08:39:32;;;;;;;14.23;10.05;;;;;;;;;;5094154;28;20031;-68
2022/12/01 08:41:57;;;;;;;15.23;12.23;;;;;;;;;;5093832;28;20462;-67
2022/12/01 08:44:22;;;;;;;27.15;22.40;;;;;;;;;;5093776;28;20032;-67
2022/12/01 08:46:48;;;;;;;21.33;16.65;;;;;;;;;;5075705;28;20043;-68
2022/12/01 08:49:13;;;;;;;17.98;13.98;;;;;;;;;;5093785;28;20463;-67
2022/12/01 08:51:39;;;;;;;17.60;13.23;;;;;;;;;;5075506;28;20028;-67
2022/12/01 08:54:04;;;;;;;13.13;10.70;;;;;;;;;;5075649;28;20016;-67
2022/12/01 08:56:34;;;;;;;13.18;10.90;;;;;;;;;;5093666;28;20355;-67
2022/12/01 08:59:00;;;;;;;9.90;8.65;;;;;;;;;;5093795;28;20218;-69
2022/12/01 09:01:26;;;;;;;11.35;9.38;;;;;;;;;;5076222;28;20560;-67
2022/12/01 09:04:03;;;;;;;13.38;11.63;;;;;;;;;;5093615;28;20020;-67
2022/12/01 09:06:30;;;;;;;20.20;15.30;;;;;;;;;;5093898;28;20036;-68
2022/12/01 09:08:57;;;;;;;8.07;7.30;;;;;;;;;;5093574;28;20093;-67
2022/12/01 09:11:22;;;;;;;15.98;14.48;;;;;;;;;;5093555;28;20035;-67
2022/12/01 09:13:48;;;;;;;15.82;13.00;;;;;;;;;;5093690;28;20020;-67
2022/12/01 09:16:14;;;;;;;12.95;11.30;;;;;;;;;;5093760;28;20077;-67
2022/12/01 09:18:40;;;;;;;8.05;7.25;;;;;;;;;;5093493;28;20016;-67
2022/12/01 09:21:13;;;;;;;14.40;12.90;;;;;;;;;;5093741;28;20073;-67
2022/12/01 09:23:39;;;;;;;12.98;10.15;;;;;;;;;;5075723;28;20077;-67
2022/12/01 09:26:05;;;;;;;18.05;12.25;;;;;;;;;;5075355;28;20420;-68
2022/12/01 09:28:30;;;;;;;21.08;13.52;;;;;;;;;;5093702;28;20039;-67
2022/12/01 09:30:56;;;;;;;12.45;9.60;;;;;;;;;;5093687;28;20024;-67
2022/12/01 09:33:21;;;;;;;12.50;9.63;;;;;;;;;;5093254;28;20024;-67
2022/12/01 09:35:46;;;;;;;18.30;15.57;;;;;;;;;;5093591;28;20016;-67
2022/12/01 09:38:12;;;;;;;15.05;10.35;;;;;;;;;;5093580;28;20190;-67
2022/12/01 09:40:39;;;;;;;13.88;11.25;;;;;;;;;;5093837;28;20096;-68
2022/12/01 09:43:17;;;;;;;13.70;9.57;;;;;;;;;;5075557;28;20104;-67
2022/12/01 09:45:46;;;;;;;9.52;7.40;;;;;;;;;;5075558;28;20040;-67
2022/12/01 09:48:41;;;;;;;8.98;7.78;;;;;;;;;;5095157;28;20382;-68
2022/12/01 09:51:26;;;;;;;16.70;15.07;;;;;;;;;;5094979;28;20044;-67
2022/12/01 09:53:57;;;;;;;26.73;19.40;;;;;;;;;;5097053;28;20032;-67
2022/12/01 09:56:22;;;;;;;17.27;14.13;;;;;;;;;;5079076;28;20044;-67
2022/12/01 09:59:07;;;;;;;93.73;77.33;;;;;;;;;;5078598;28;20020;-68
2022/12/01 10:01:40;;;;;;;21.77;19.75;;;;;;;;;;5096982;28;20274;-67
2022/12/01 10:04:21;;;;;;;41.25;36.92;;;;;;;;;;5096980;28;20103;-67
2022/12/01 10:06:46;;;;;;;;;;;;;;;;;;5097086;28;20032;-67
2022/12/01 10:09:21;;;;;;;21.23;18.98;;;;;;;;;;5097178;28;20010;-67
2022/12/01 10:11:47;;;;;;;13.13;11.77;;;;;;;;;;5096727;28;20028;-67
2022/12/01 10:14:17;;;;;;;6.45;5.57;;;;;;;;;;5096501;28;20023;-67
2022/12/01 10:16:50;;;;;;;34.08;29.60;;;;;;;;;;5097057;28;20024;-67
2022/12/01 10:19:23;;;;;;;16.15;13.43;;;;;;;;;;5096955;28;20028;-67
2022/12/01 10:21:48;;;;;;;15.35;10.05;;;;;;;;;;5096358;28;20025;-67
2022/12/01 10:24:21;;;;;;;38.65;25.95;;;;;;;;;;5096844;28;20016;-67
2022/12/01 10:26:54;;;;;;;138.88;96.97;;;;;;;;;;5096259;28;20032;-67
2022/12/01 10:29:49;;;;;;;51.90;43.97;;;;;;;;;;5078463;28;20374;-67
2022/12/01 10:32:19;;;;;;;44.63;39.92;;;;;;;;;;5078422;28;20043;-70
2022/12/01 10:34:46;;;;;;;27.77;21.80;;;;;;;;;;5096153;28;20016;-70
2022/12/01 10:37:20;;;;;;;14.77;9.50;;;;;;;;;;5096187;28;20009;-70
2022/12/01 10:39:47;;;;;;;10.73;7.30;;;;;;;;;;5095837;28;20032;-70
2022/12/01 10:42:18;;;;;;;11.35;7.18;;;;;;;;;;5095648;28;20073;-70
2022/12/01 10:44:44;;;;;;;8.68;7.38;;;;;;;;;;5095021;28;20420;-72
2022/12/01 10:47:17;;;;;;;120.88;61.17;;;;;;;;;;5094854;28;20027;-71
2022/12/01 10:49:42;;;;;;;12.32;9.25;;;;;;;;;;5094983;28;20071;-70
2022/12/01 10:52:24;;;;;;;93.72;65.32;;;;;;;;;;5094231;28;20035;-70
2022/12/01 10:54:50;;;;;;;18.83;15.32;;;;;;;;;;5094585;28;20020;-70
2022/12/01 10:57:18;;;;;;;19.52;14.55;;;;;;;;;;5094580;28;20043;-70
2022/12/01 10:59:51;;;;;;;7.03;6.43;;;;;;;;;;5093867;28;20040;-70
2022/12/01 11:02:19;;;;;;;10.93;8.10;;;;;;;;;;5094441;28;20051;-70
2022/12/01 11:05:03;;;;;;;6.70;5.63;;;;;;;;;;5094430;28;20024;-70
2022/12/01 11:07:31;;;;;;;252.50;94.05;;;;;;;;;;5094077;28;20032;-70
2022/12/01 11:10:01;;;;;;;13.90;9.60;;;;;;;;;;5094446;28;20420;-70
2022/12/01 11:12:27;;;;;;;19.23;13.20;;;;;;;;;;5094207;28;20042;-70
2022/12/01 11:14:53;;;;;;;23.05;15.93;;;;;;;;;;5075728;28;20016;-70
2022/12/01 11:17:27;;;;;;;28.00;19.70;;;;;;;;;;5094176;28;20035;-70
2022/12/01 11:19:52;;;;;;;19.95;15.20;;;;;;;;;;5093851;28;20024;-70
2022/12/01 11:22:25;;;;;;;109.72;69.70;;;;;;;;;;5094036;28;20020;-70
2022/12/01 11:24:51;;;;;;;28.38;18.20;;;;;;;;;;5093942;28;20375;-70
2022/12/01 11:27:17;;;;;;;12.80;9.70;;;;;;;;;;5093962;28;20027;-70
2022/12/01 11:29:45;;;;;;;26.80;13.57;;;;;;;;;;5075863;28;20043;-70
2022/12/01 11:32:19;;;;;;;7.10;5.72;;;;;;;;;;5093840;28;20097;-70
2022/12/01 11:34:52;;;;;;;11.07;8.30;;;;;;;;;;5093812;28;20043;-70
2022/12/01 11:37:19;;;;;;;5.78;5.07;;;;;;;;;;5075737;28;20463;-70
2022/12/01 11:39:46;;;;;;;8.63;7.63;;;;;;;;;;5093444;28;20024;-70
2022/12/01 11:42:20;;;;;;;48.33;32.08;;;;;;;;;;5093537;28;20485;-70
2022/12/01 11:44:51;;;;;;;15.10;11.95;;;;;;;;;;5075430;28;20491;-70
2022/12/01 11:47:20;;;;;;;12.90;8.23;;;;;;;;;;5093314;28;20046;-70
2022/12/01 11:49:50;;;;;;;12.07;9.93;;;;;;;;;;5075171;28;20020;-68
2022/12/01 11:52:23;;;;;;;10.57;8.35;;;;;;;;;;5093379;28;20025;-67
2022/12/01 11:55:07;;;;;;;10.57;9.27;;;;;;;;;;5058703;28;20032;-68
2022/12/01 11:57:32;;;;;;;7.53;6.82;;;;;;;;;;5093429;28;20466;-67
2022/12/01 11:59:58;;;;;;;17.38;12.13;;;;;;;;;;5093113;28;20055;-68
2022/12/01 12:02:50;;;;;;;5.40;4.90;;;;;;;;;;5093353;28;20103;-68
2022/12/01 12:05:34;;;;;;;6.38;5.80;;;;;;;;;;5093318;28;20039;-67
2022/12/01 12:08:05;;;;;;;9.85;7.97;;;;;;;;;;5093234;28;20047;-67
2022/12/01 12:10:50;;;;;;;12.68;10.38;;;;;;;;;;5092297;28;20024;-68
2022/12/01 12:13:15;;;;;;;6.15;5.50;;;;;;;;;;5093095;28;20031;-68
2022/12/01 12:15:56;;;;;;;6.88;6.13;;;;;;;;;;5093147;28;20012;-68
2022/12/01 12:18:22;;;;;;;11.43;9.40;;;;;;;;;;5092701;28;20024;-67
2022/12/01 12:20:56;;;;;;;11.77;9.93;;;;;;;;;;5074863;28;20102;-67
2022/12/01 12:23:35;;;;;;;13.25;9.02;;;;;;;;;;5093127;28;20040;-68
2022/12/01 12:26:10;;;;;;;8.73;5.75;;;;;;;;;;5092981;28;20031;-68
2022/12/01 12:28:38;;;;;;;5.90;5.30;;;;;;;;;;5074848;28;20473;-67
2022/12/01 12:31:13;;;;;;;5.78;5.22;;;;;;;;;;5092929;28;20480;-68
2022/12/01 12:33:38;;;;;;;20.27;13.90;;;;;;;;;;5092578;28;20040;-68
2022/12/01 12:36:09;;;;;;;26.77;18.83;;;;;;;;;;5092822;28;20523;-70
2022/12/01 12:38:34;;;;;;;20.90;13.93;;;;;;;;;;5074662;28;20098;-70
2022/12/01 12:41:19;;;;;;;6.70;6.00;;;;;;;;;;5074629;28;20032;-70
2022/12/01 12:43:44;;;;;;;7.95;5.70;;;;;;;;;;5092688;28;20062;-70
2022/12/01 12:46:11;;;;;;;6.78;5.00;;;;;;;;;;5074650;28;20063;-70
2022/12/01 12:48:36;;;;;;;15.02;9.20;;;;;;;;;;5092687;28;20048;-70
2022/12/01 12:51:21;;;;;;;5.90;5.33;;;;;;;;;;5092705;28;20430;-70
2022/12/01 12:54:09;;;;;;;15.32;9.95;;;;;;;;;;5092550;28;20281;-70
2022/12/01 12:56:35;;;;;;;7.18;6.53;;;;;;;;;;5063818;28;20040;-70
2022/12/01 12:59:06;;;;;;;5.18;4.78;;;;;;;;;;5074131;28;20034;-70
2022/12/01 13:01:42;;;;;;;6.57;5.95;;;;;;;;;;5092453;28;20027;-70
2022/12/01 13:04:10;;;;;;;5.82;5.20;;;;;;;;;;5092495;28;20027;-70
2022/12/01 13:06:47;;;;;;;8.05;6.20;;;;;;;;;;5092192;28;20028;-70
2022/12/01 13:09:16;;;;;;;12.68;8.68;;;;;;;;;;5092589;28;20028;-68
2022/12/01 13:11:41;;;;;;;10.48;7.32;;;;;;;;;;5092397;28;20024;-67
2022/12/01 13:14:19;;;;;;;13.23;8.63;;;;;;;;;;5092136;28;20024;-67
2022/12/01 13:16:46;;;;;;;21.65;11.90;;;;;;;;;;5074355;28;20060;-68
2022/12/01 13:19:26;;;;;;;9.15;7.80;;;;;;;;;;5092399;28;20027;-68
2022/12/01 13:21:52;;;;;;;28.75;17.80;;;;;;;;;;5093797;28;20024;-68
2022/12/01 13:24:19;;;;;;;17.90;14.40;;;;;;;;;;5096491;28;20030;-68
2022/12/01 13:26:45;;;;;;;9.15;7.75;;;;;;;;;;5077695;28;20024;-68
2022/12/01 13:29:15;;;;;;;12.23;10.80;;;;;;;;;;5078367;28;20016;-68
2022/12/01 13:31:42;;;;;;;17.83;13.80;;;;;;;;;;5061382;28;20086;-68
2022/12/01 13:34:15;;;;;;;37.50;23.70;;;;;;;;;;5078151;28;20474;-68
2022/12/01 13:36:46;;;;;;;21.60;18.45;;;;;;;;;;5078347;28;20459;-68
2022/12/01 13:39:20;;;;;;;10.68;9.57;;;;;;;;;;5096148;28;20099;-67
2022/12/01 13:41:55;;;;;;;10.05;9.05;;;;;;;;;;5095993;28;20035;-68
2022/12/01 13:44:20;;;;;;;11.82;10.55;;;;;;;;;;5095923;28;20537;-68
2022/12/01 13:46:45;;;;;;;7.38;6.68;;;;;;;;;;5096244;28;20040;-68
2022/12/01 13:49:30;;;;;;;8.52;7.72;;;;;;;;;;5077394;28;20036;-67
2022/12/01 13:52:14;;;;;;;21.17;14.65;;;;;;;;;;5077478;28;20032;-68
2022/12/01 13:54:57;;;;;;;13.52;11.13;;;;;;;;;;5095748;28;20020;-68
2022/12/01 13:57:27;;;;;;;9.02;8.13;;;;;;;;;;5078225;28;20024;-67
2022/12/01 13:59:59;;;;;;;13.40;11.40;;;;;;;;;;5078430;28;20429;-68
2022/12/01 14:02:27;;;;;;;43.42;39.40;;;;;;;;;;5096459;28;20298;-67
2022/12/01 14:04:52;;;;;;;22.70;19.08;;;;;;;;;;5097279;28;20036;-67
2022/12/01 14:07:25;;;;;;;19.08;15.88;;;;;;;;;;5078889;28;20032;-67
2022/12/01 14:09:51;;;;;;;19.08;15.60;;;;;;;;;;5096466;28;20043;-68
2022/12/01 14:12:23;;;;;;;13.25;11.48;;;;;;;;;;5096203;28;20681;-67
2022/12/01 14:14:52;;;;;;;10.25;8.98;;;;;;;;;;5096564;28;20036;-67
2022/12/01 14:17:24;;;;;;;11.77;10.50;;;;;;;;;;5096435;28;20024;-67
2022/12/01 14:19:51;;;;;;;11.05;9.05;;;;;;;;;;5096122;28;20400;-68
2022/12/01 14:22:35;;;;;;;11.85;9.45;;;;;;;;;;5076923;28;20488;-67
2022/12/01 14:25:01;;;;;;;11.20;9.10;;;;;;;;;;5094214;28;20389;-68
2022/12/01 14:27:33;;;;;;;11.68;9.35;;;;;;;;;;5095021;28;20024;-68
2022/12/01 14:30:18;;;;;;;10.10;7.38;;;;;;;;;;5077697;28;20470;-67
2022/12/01 14:32:44;;;;;;;8.77;7.40;;;;;;;;;;5077370;28;20028;-67
2022/12/01 14:35:12;;;;;;;6.35;5.75;;;;;;;;;;5078071;28;20016;-67
2022/12/01 14:37:38;;;;;;;5.93;5.43;;;;;;;;;;5096358;28;20442;-67
2022/12/01 14:40:11;;;;;;;13.68;9.57;;;;;;;;;;5096007;28;20031;-67
2022/12/01 14:45:48;;;;;;;27.60;25.13;;;;;;;;;;5095878;28;20394;-67